sensor_id;sensor_type;location;lat;lon;timestamp;pressure;altitude;pressure_sealevel;temperature;humidity
12951;BME280;6540;50.858;7.232;2023-05-25T00:00:19;51796.03;;;-142.34;28.83
12951;BME280;6540;50.858;7.232;2023-05-25T00:02:44;51814.19;;;-142.34;28.66
12951;BME280;6540;50.858;7.232;2023-05-25T00:05:31;51810.16;;;-142.34;28.03
12951;BME280;6540;50.858;7.232;2023-05-25T00:07:57;51792.00;;;-142.34;27.80
12951;BME280;6540;50.858;7.232;2023-05-25T00:10:22;51814.19;;;-142.34;27.95
12951;BME280;6540;50.858;7.232;2023-05-25T00:12:59;51798.06;;;-142.34;27.87
12951;BME280;6540;50.858;7.232;2023-05-25T00:15:24;51771.84;;;-142.34;28.96
12951;BME280;6540;50.858;7.232;2023-05-25T00:18:22;51777.88;;;-142.34;27.42
12951;BME280;6540;50.858;7.232;2023-05-25T00:20:53;51787.97;;;-142.34;28.30
12951;BME280;6540;50.858;7.232;2023-05-25T00:23:22;51802.09;;;-142.34;28.09
12951;BME280;6540;50.858;7.232;2023-05-25T00:25:50;51810.16;;;-142.34;27.21
12951;BME280;6540;50.858;7.232;2023-05-25T00:28:16;51769.81;;;-142.34;26.62
12951;BME280;6540;50.858;7.232;2023-05-25T00:30:41;51771.84;;;-142.34;26.36
12951;BME280;6540;50.858;7.232;2023-05-25T00:33:38;51794.03;;;-142.34;26.14
12951;BME280;6540;50.858;7.232;2023-05-25T00:36:06;51792.00;;;-142.34;26.16
12951;BME280;6540;50.858;7.232;2023-05-25T00:38:33;51790.00;;;-142.34;26.18
12951;BME280;6540;50.858;7.232;2023-05-25T00:43:54;51802.09;;;-142.34;26.51
12951;BME280;6540;50.858;7.232;2023-05-25T00:46:20;51779.91;;;-142.34;26.35
12951;BME280;6540;50.858;7.232;2023-05-25T00:48:54;51796.03;;;-142.34;26.15
12951;BME280;6540;50.858;7.232;2023-05-25T00:51:50;51761.75;;;-142.34;26.49
12951;BME280;6540;50.858;7.232;2023-05-25T00:54:37;51790.00;;;-142.34;26.80
12951;BME280;6540;50.858;7.232;2023-05-25T00:57:07;51810.16;;;-142.34;28.70
12951;BME280;6540;50.858;7.232;2023-05-25T00:59:43;51808.16;;;-142.34;27.87
12951;BME280;6540;50.858;7.232;2023-05-25T01:02:16;51798.06;;;-142.34;27.16
12951;BME280;6540;50.858;7.232;2023-05-25T01:04:56;51794.03;;;-142.34;26.66
12951;BME280;6540;50.858;7.232;2023-05-25T01:10:31;51806.13;;;-142.34;26.58
12951;BME280;6540;50.858;7.232;2023-05-25T01:13:03;51804.13;;;-142.34;26.57
12951;BME280;6540;50.858;7.232;2023-05-25T01:15:31;51812.19;;;-142.34;26.93
12951;BME280;6540;50.858;7.232;2023-05-25T01:18:13;51814.19;;;-142.34;26.37
12951;BME280;6540;50.858;7.232;2023-05-25T01:25:10;51814.19;;;-142.34;27.17
12951;BME280;6540;50.858;7.232;2023-05-25T01:30:41;51802.09;;;-142.34;26.90
12951;BME280;6540;50.858;7.232;2023-05-25T01:33:11;51781.91;;;-142.34;26.14
12951;BME280;6540;50.858;7.232;2023-05-25T01:35:45;51794.03;;;-142.34;26.39
12951;BME280;6540;50.858;7.232;2023-05-25T01:38:11;51824.28;;;-142.34;27.37
12951;BME280;6540;50.858;7.232;2023-05-25T01:40:37;51785.94;;;-142.34;26.93
12951;BME280;6540;50.858;7.232;2023-05-25T01:43:05;51802.09;;;-142.34;26.78
12951;BME280;6540;50.858;7.232;2023-05-25T01:45:31;51836.38;;;-142.34;26.90
12951;BME280;6540;50.858;7.232;2023-05-25T01:51:17;51785.94;;;-142.34;26.69
12951;BME280;6540;50.858;7.232;2023-05-25T01:54:01;51757.72;;;-142.34;26.17
12951;BME280;6540;50.858;7.232;2023-05-25T01:59:45;51812.19;;;-142.34;28.68
12951;BME280;6540;50.858;7.232;2023-05-25T02:02:21;51804.13;;;-142.34;28.63
12951;BME280;6540;50.858;7.232;2023-05-25T02:04:59;51792.00;;;-142.34;28.19
12951;BME280;6540;50.858;7.232;2023-05-25T02:07:28;51830.34;;;-142.34;27.78
12951;BME280;6540;50.858;7.232;2023-05-25T02:10:20;51800.06;;;-142.34;27.69
12951;BME280;6540;50.858;7.232;2023-05-25T02:12:45;51802.09;;;-142.34;28.27
12951;BME280;6540;50.858;7.232;2023-05-25T02:15:15;51836.38;;;-142.34;28.85
12951;BME280;6540;50.858;7.232;2023-05-25T02:17:46;51790.00;;;-142.34;28.29
12951;BME280;6540;50.858;7.232;2023-05-25T02:20:17;51810.16;;;-142.34;29.55
12951;BME280;6540;50.858;7.232;2023-05-25T02:22:42;51818.22;;;-142.34;29.46
12951;BME280;6540;50.858;7.232;2023-05-25T02:25:08;51862.63;;;-142.34;30.04
12951;BME280;6540;50.858;7.232;2023-05-25T02:27:36;51814.19;;;-142.34;29.09
12951;BME280;6540;50.858;7.232;2023-05-25T02:30:01;51850.50;;;-142.34;28.95
12951;BME280;6540;50.858;7.232;2023-05-25T02:32:27;51824.28;;;-142.34;30.17
12951;BME280;6540;50.858;7.232;2023-05-25T02:34:53;51836.38;;;-142.34;28.02
12951;BME280;6540;50.858;7.232;2023-05-25T02:37:18;51850.50;;;-142.34;27.98
12951;BME280;6540;50.858;7.232;2023-05-25T02:39:45;51810.16;;;-142.34;29.36
12951;BME280;6540;50.858;7.232;2023-05-25T02:42:10;51842.44;;;-142.34;29.23
12951;BME280;6540;50.858;7.232;2023-05-25T02:44:36;51840.41;;;-142.34;29.65
12951;BME280;6540;50.858;7.232;2023-05-25T02:47:01;51874.72;;;-142.34;28.99
12951;BME280;6540;50.858;7.232;2023-05-25T02:49:27;51854.53;;;-142.34;27.85
12951;BME280;6540;50.858;7.232;2023-05-25T02:51:54;51830.34;;;-142.34;27.64
12951;BME280;6540;50.858;7.232;2023-05-25T02:54:20;51852.53;;;-142.34;28.53
12951;BME280;6540;50.858;7.232;2023-05-25T02:56:45;51870.69;;;-142.34;28.56
12951;BME280;6540;50.858;7.232;2023-05-25T02:59:11;51842.44;;;-142.34;29.71
12951;BME280;6540;50.858;7.232;2023-05-25T03:01:36;51828.31;;;-142.34;30.30
12951;BME280;6540;50.858;7.232;2023-05-25T03:04:05;51824.28;;;-142.34;29.82
12951;BME280;6540;50.858;7.232;2023-05-25T03:06:30;51846.47;;;-142.34;28.17
12951;BME280;6540;50.858;7.232;2023-05-25T03:11:52;51854.53;;;-142.34;29.64
12951;BME280;6540;50.858;7.232;2023-05-25T03:14:31;51830.34;;;-142.34;28.70
12951;BME280;6540;50.858;7.232;2023-05-25T03:16:56;51862.63;;;-142.34;27.90
12951;BME280;6540;50.858;7.232;2023-05-25T03:19:27;51842.44;;;-142.34;29.07
12951;BME280;6540;50.858;7.232;2023-05-25T03:21:52;51800.06;;;-142.34;30.60
12951;BME280;6540;50.858;7.232;2023-05-25T03:24:18;51842.44;;;-142.34;30.17
12951;BME280;6540;50.858;7.232;2023-05-25T03:26:43;51874.72;;;-142.34;29.17
12951;BME280;6540;50.858;7.232;2023-05-25T03:29:28;51862.63;;;-142.34;26.95
12951;BME280;6540;50.858;7.232;2023-05-25T03:31:56;51862.63;;;-142.34;26.97
12951;BME280;6540;50.858;7.232;2023-05-25T03:34:40;51822.25;;;-142.34;27.29
12951;BME280;6540;50.858;7.232;2023-05-25T03:37:09;51848.50;;;-142.34;27.56
12951;BME280;6540;50.858;7.232;2023-05-25T03:39:34;51862.63;;;-142.34;28.30
12951;BME280;6540;50.858;7.232;2023-05-25T03:42:06;51808.16;;;-142.34;29.68
12951;BME280;6540;50.858;7.232;2023-05-25T03:44:37;51802.09;;;-142.34;28.37
12951;BME280;6540;50.858;7.232;2023-05-25T03:47:02;51846.47;;;-142.34;28.10
12951;BME280;6540;50.858;7.232;2023-05-25T03:49:30;51878.75;;;-142.34;27.70
12951;BME280;6540;50.858;7.232;2023-05-25T03:51:56;51838.41;;;-142.34;28.22
12951;BME280;6540;50.858;7.232;2023-05-25T03:54:24;51818.22;;;-142.34;29.61
12951;BME280;6540;50.858;7.232;2023-05-25T03:56:50;51844.47;;;-142.34;29.00
12951;BME280;6540;50.858;7.232;2023-05-25T03:59:18;51864.63;;;-142.34;27.79
12951;BME280;6540;50.858;7.232;2023-05-25T04:01:44;51840.41;;;-142.34;27.90
12951;BME280;6540;50.858;7.232;2023-05-25T04:04:39;51850.50;;;-142.34;27.63
12951;BME280;6540;50.858;7.232;2023-05-25T04:07:22;51848.50;;;-142.34;27.03
12951;BME280;6540;50.858;7.232;2023-05-25T04:09:51;51826.31;;;-142.34;26.39
12951;BME280;6540;50.858;7.232;2023-05-25T04:12:29;51816.22;;;-142.34;26.56
12951;BME280;6540;50.858;7.232;2023-05-25T04:14:54;51826.31;;;-142.34;26.76
12951;BME280;6540;50.858;7.232;2023-05-25T04:17:20;51830.34;;;-142.34;27.24
12951;BME280;6540;50.858;7.232;2023-05-25T04:19:49;51810.16;;;-142.34;28.08
12951;BME280;6540;50.858;7.232;2023-05-25T04:22:18;51862.63;;;-142.34;27.14
12951;BME280;6540;50.858;7.232;2023-05-25T04:24:44;51812.19;;;-142.34;27.25
12951;BME280;6540;50.858;7.232;2023-05-25T04:27:12;51852.53;;;-142.34;27.66
12951;BME280;6540;50.858;7.232;2023-05-25T04:33:00;51812.19;;;-142.34;27.54
12951;BME280;6540;50.858;7.232;2023-05-25T04:38:39;51840.41;;;-142.34;27.71
12951;BME280;6540;50.858;7.232;2023-05-25T04:41:08;51814.19;;;-142.34;26.33
12951;BME280;6540;50.858;7.232;2023-05-25T04:46:55;51790.00;;;-142.34;26.85
12951;BME280;6540;50.858;7.232;2023-05-25T04:49:21;51737.53;;;-142.34;25.71
12951;BME280;6540;50.858;7.232;2023-05-25T04:51:46;51723.41;;;-142.34;25.00
12951;BME280;6540;50.858;7.232;2023-05-25T04:54:11;51697.19;;;-142.34;25.07
12951;BME280;6540;50.858;7.232;2023-05-25T04:56:37;51721.41;;;-142.34;25.81
12951;BME280;6540;50.858;7.232;2023-05-25T04:59:02;51717.38;;;-142.34;25.92
12951;BME280;6540;50.858;7.232;2023-05-25T05:01:29;51731.50;;;-142.34;26.27
12951;BME280;6540;50.858;7.232;2023-05-25T05:03:55;51737.53;;;-142.34;25.57
12951;BME280;6540;50.858;7.232;2023-05-25T05:09:15;51717.38;;;-142.34;25.41
12951;BME280;6540;50.858;7.232;2023-05-25T05:11:40;51705.25;;;-142.34;25.66
12951;BME280;6540;50.858;7.232;2023-05-25T05:14:08;51664.91;;;-142.34;25.29
12951;BME280;6540;50.858;7.232;2023-05-25T05:16:34;51701.22;;;-142.34;25.87
12951;BME280;6540;50.858;7.232;2023-05-25T05:19:02;51733.50;;;-142.34;25.99
12951;BME280;6540;50.858;7.232;2023-05-25T05:21:28;51729.47;;;-142.34;25.51
12951;BME280;6540;50.858;7.232;2023-05-25T05:23:56;51699.22;;;-142.34;24.90
12951;BME280;6540;50.858;7.232;2023-05-25T05:26:22;51701.22;;;-142.34;25.01
12951;BME280;6540;50.858;7.232;2023-05-25T05:28:55;51681.06;;;-142.34;24.80
12951;BME280;6540;50.858;7.232;2023-05-25T05:31:21;51693.16;;;-142.34;25.07
12951;BME280;6540;50.858;7.232;2023-05-25T05:33:51;51660.88;;;-142.34;25.37
12951;BME280;6540;50.858;7.232;2023-05-25T05:36:17;51658.88;;;-142.34;25.36
12951;BME280;6540;50.858;7.232;2023-05-25T05:38:42;51652.81;;;-142.34;24.80
12951;BME280;6540;50.858;7.232;2023-05-25T05:41:10;51656.84;;;-142.34;25.10
12951;BME280;6540;50.858;7.232;2023-05-25T05:43:41;51644.75;;;-142.34;25.71
12951;BME280;6540;50.858;7.232;2023-05-25T05:46:10;51654.84;;;-142.34;25.48
12951;BME280;6540;50.858;7.232;2023-05-25T05:48:36;51701.22;;;-142.34;25.82
12951;BME280;6540;50.858;7.232;2023-05-25T05:51:08;51668.97;;;-142.34;25.97
12951;BME280;6540;50.858;7.232;2023-05-25T05:53:33;51668.97;;;-142.34;25.22
12951;BME280;6540;50.858;7.232;2023-05-25T05:56:00;51681.06;;;-142.34;25.55
12951;BME280;6540;50.858;7.232;2023-05-25T05:58:26;51691.16;;;-142.34;26.46
12951;BME280;6540;50.858;7.232;2023-05-25T06:00:55;51648.78;;;-142.34;25.30
12951;BME280;6540;50.858;7.232;2023-05-25T06:03:23;51697.19;;;-142.34;25.85
12951;BME280;6540;50.858;7.232;2023-05-25T06:05:51;51660.88;;;-142.34;25.83
12951;BME280;6540;50.858;7.232;2023-05-25T06:08:17;51693.16;;;-142.34;26.40
12951;BME280;6540;50.858;7.232;2023-05-25T06:10:48;51646.75;;;-142.34;25.01
12951;BME280;6540;50.858;7.232;2023-05-25T06:13:17;51618.53;;;-142.34;25.52
12951;BME280;6540;50.858;7.232;2023-05-25T06:16:03;51604.41;;;-142.34;25.14
12951;BME280;6540;50.858;7.232;2023-05-25T06:18:44;51681.06;;;-142.34;25.55
12951;BME280;6540;50.858;7.232;2023-05-25T06:21:15;51632.66;;;-142.34;25.40
12951;BME280;6540;50.858;7.232;2023-05-25T06:23:40;51638.69;;;-142.34;25.59
12951;BME280;6540;50.858;7.232;2023-05-25T06:26:07;51640.72;;;-142.34;26.16
12951;BME280;6540;50.858;7.232;2023-05-25T06:28:33;51588.28;;;-142.34;25.14
12951;BME280;6540;50.858;7.232;2023-05-25T06:30:59;51517.66;;;-142.34;23.87
12951;BME280;6540;50.858;7.232;2023-05-25T06:33:24;51523.72;;;-142.34;24.49
12951;BME280;6540;50.858;7.232;2023-05-25T06:35:50;51491.44;;;-142.34;23.91
12951;BME280;6540;50.858;7.232;2023-05-25T06:38:16;51443.03;;;-142.34;23.58
12951;BME280;6540;50.858;7.232;2023-05-25T06:40:42;51441.03;;;-142.34;23.65
12951;BME280;6540;50.858;7.232;2023-05-25T06:43:07;51356.31;;;-142.34;23.10
12951;BME280;6540;50.858;7.232;2023-05-25T06:45:33;51386.56;;;-142.34;22.84
12951;BME280;6540;50.858;7.232;2023-05-25T06:47:58;51392.59;;;-142.34;23.64
12951;BME280;6540;50.858;7.232;2023-05-25T06:50:23;51406.72;;;-142.34;23.38
12951;BME280;6540;50.858;7.232;2023-05-25T06:52:49;51370.41;;;-142.34;23.19
12951;BME280;6540;50.858;7.232;2023-05-25T06:55:15;51439.00;;;-142.34;23.85
12951;BME280;6540;50.858;7.232;2023-05-25T06:57:40;51374.44;;;-142.34;23.60
12951;BME280;6540;50.858;7.232;2023-05-25T07:00:14;51406.72;;;-142.34;23.47
12951;BME280;6540;50.858;7.232;2023-05-25T07:02:40;51426.91;;;-142.34;23.62
12951;BME280;6540;50.858;7.232;2023-05-25T07:05:06;51418.84;;;-142.34;23.50
12951;BME280;6540;50.858;7.232;2023-05-25T07:07:32;51374.44;;;-142.34;23.43
12951;BME280;6540;50.858;7.232;2023-05-25T07:10:01;51426.91;;;-142.34;24.02
12951;BME280;6540;50.858;7.232;2023-05-25T07:12:29;51434.97;;;-142.34;23.48
12951;BME280;6540;50.858;7.232;2023-05-25T07:14:57;51439.00;;;-142.34;23.89
12951;BME280;6540;50.858;7.232;2023-05-25T07:17:26;51374.44;;;-142.34;22.99
12951;BME280;6540;50.858;7.232;2023-05-25T07:19:52;51410.75;;;-142.34;23.48
12951;BME280;6540;50.858;7.232;2023-05-25T07:22:18;51418.84;;;-142.34;23.36
12951;BME280;6540;50.858;7.232;2023-05-25T07:24:44;51336.13;;;-142.34;22.82
12951;BME280;6540;50.858;7.232;2023-05-25T07:27:10;51402.69;;;-142.34;23.12
12951;BME280;6540;50.858;7.232;2023-05-25T07:29:45;51519.69;;;-142.34;24.41
12951;BME280;6540;50.858;7.232;2023-05-25T07:32:10;51539.84;;;-142.34;23.69
12951;BME280;6540;50.858;7.232;2023-05-25T07:34:39;51531.78;;;-142.34;23.76
12951;BME280;6540;50.858;7.232;2023-05-25T07:37:05;51596.34;;;-142.34;24.83
12951;BME280;6540;50.858;7.232;2023-05-25T07:39:30;51539.84;;;-142.34;24.61
12951;BME280;6540;50.858;7.232;2023-05-25T07:41:56;51596.34;;;-142.34;24.80
12951;BME280;6540;50.858;7.232;2023-05-25T07:44:22;51600.38;;;-142.34;25.09
12951;BME280;6540;50.858;7.232;2023-05-25T07:46:50;51580.19;;;-142.34;25.02
12951;BME280;6540;50.858;7.232;2023-05-25T07:49:32;51507.59;;;-142.34;24.44
12951;BME280;6540;50.858;7.232;2023-05-25T07:52:00;51598.34;;;-142.34;24.65
12951;BME280;6540;50.858;7.232;2023-05-25T07:54:27;51576.16;;;-142.34;24.39
12951;BME280;6540;50.858;7.232;2023-05-25T07:56:53;51582.22;;;-142.34;24.24
12951;BME280;6540;50.858;7.232;2023-05-25T07:59:18;51604.41;;;-142.34;25.46
12951;BME280;6540;50.858;7.232;2023-05-25T08:01:44;51622.56;;;-142.34;25.15
12951;BME280;6540;50.858;7.232;2023-05-25T08:04:09;51612.47;;;-142.34;25.78
12951;BME280;6540;50.858;7.232;2023-05-25T08:06:34;51622.56;;;-142.34;25.24
12951;BME280;6540;50.858;7.232;2023-05-25T08:09:02;51543.88;;;-142.34;24.65
12951;BME280;6540;50.858;7.232;2023-05-25T08:11:27;51562.03;;;-142.34;24.31
12951;BME280;6540;50.858;7.232;2023-05-25T08:13:56;51551.97;;;-142.34;24.63
12951;BME280;6540;50.858;7.232;2023-05-25T08:16:21;51586.25;;;-142.34;25.17
12951;BME280;6540;50.858;7.232;2023-05-25T08:18:47;51580.19;;;-142.34;24.92
12951;BME280;6540;50.858;7.232;2023-05-25T08:21:13;51580.19;;;-142.34;24.37
12951;BME280;6540;50.858;7.232;2023-05-25T08:23:41;51594.31;;;-142.34;24.88
12951;BME280;6540;50.858;7.232;2023-05-25T08:26:08;51610.47;;;-142.34;25.75
12951;BME280;6540;50.858;7.232;2023-05-25T08:28:33;51632.66;;;-142.34;25.96
12951;BME280;6540;50.858;7.232;2023-05-25T08:30:59;51646.75;;;-142.34;25.91
12951;BME280;6540;50.858;7.232;2023-05-25T08:33:24;51608.44;;;-142.34;25.68
12951;BME280;6540;50.858;7.232;2023-05-25T08:35:49;51673.00;;;-142.34;25.91
12951;BME280;6540;50.858;7.232;2023-05-25T08:38:17;51578.19;;;-142.34;25.02
12951;BME280;6540;50.858;7.232;2023-05-25T08:40:44;51580.19;;;-142.34;24.73
12951;BME280;6540;50.858;7.232;2023-05-25T08:43:10;51600.38;;;-142.34;24.51
12951;BME280;6540;50.858;7.232;2023-05-25T08:45:38;51523.72;;;-142.34;24.29
12951;BME280;6540;50.858;7.232;2023-05-25T08:48:09;51475.31;;;-142.34;23.45
12951;BME280;6540;50.858;7.232;2023-05-25T08:50:37;51537.84;;;-142.34;24.35
12951;BME280;6540;50.858;7.232;2023-05-25T08:53:04;51556.00;;;-142.34;24.41
12951;BME280;6540;50.858;7.232;2023-05-25T08:55:32;51553.97;;;-142.34;24.53
12951;BME280;6540;50.858;7.232;2023-05-25T08:58:06;51547.94;;;-142.34;23.93
12951;BME280;6540;50.858;7.232;2023-05-25T09:00:39;51539.84;;;-142.34;23.92
12951;BME280;6540;50.858;7.232;2023-05-25T09:03:12;51560.03;;;-142.34;24.24
12951;BME280;6540;50.858;7.232;2023-05-25T09:05:40;51527.75;;;-142.34;24.19
12951;BME280;6540;50.858;7.232;2023-05-25T09:08:07;51507.59;;;-142.34;24.04
12951;BME280;6540;50.858;7.232;2023-05-25T09:10:34;51584.22;;;-142.34;24.30
12951;BME280;6540;50.858;7.232;2023-05-25T09:13:00;51553.97;;;-142.34;24.40
12951;BME280;6540;50.858;7.232;2023-05-25T09:15:26;51604.41;;;-142.34;24.53
12951;BME280;6540;50.858;7.232;2023-05-25T09:17:52;51584.22;;;-142.34;24.29
12951;BME280;6540;50.858;7.232;2023-05-25T09:20:18;51624.56;;;-142.34;25.06
12951;BME280;6540;50.858;7.232;2023-05-25T09:22:45;51527.75;;;-142.34;24.10
12951;BME280;6540;50.858;7.232;2023-05-25T09:25:12;51556.00;;;-142.34;23.69
12951;BME280;6540;50.858;7.232;2023-05-25T09:27:41;51543.88;;;-142.34;23.70
12951;BME280;6540;50.858;7.232;2023-05-25T09:30:10;51511.63;;;-142.34;23.16
12951;BME280;6540;50.858;7.232;2023-05-25T09:32:37;51545.91;;;-142.34;23.73
12951;BME280;6540;50.858;7.232;2023-05-25T09:35:17;51475.31;;;-142.34;22.63
12951;BME280;6540;50.858;7.232;2023-05-25T09:37:43;51556.00;;;-142.34;24.48
12951;BME280;6540;50.858;7.232;2023-05-25T09:40:09;51501.53;;;-142.34;24.05
12951;BME280;6540;50.858;7.232;2023-05-25T09:42:37;51584.22;;;-142.34;24.41
12951;BME280;6540;50.858;7.232;2023-05-25T09:45:04;51553.97;;;-142.34;24.17
12951;BME280;6540;50.858;7.232;2023-05-25T09:47:30;51570.13;;;-142.34;23.54
12951;BME280;6540;50.858;7.232;2023-05-25T09:49:58;51590.28;;;-142.34;23.43
12951;BME280;6540;50.858;7.232;2023-05-25T09:52:24;51580.19;;;-142.34;24.06
12951;BME280;6540;50.858;7.232;2023-05-25T09:54:50;51568.09;;;-142.34;24.08
12951;BME280;6540;50.858;7.232;2023-05-25T09:57:18;51547.94;;;-142.34;23.79
12951;BME280;6540;50.858;7.232;2023-05-25T09:59:44;51592.31;;;-142.34;24.82
12951;BME280;6540;50.858;7.232;2023-05-25T10:02:10;51568.09;;;-142.34;23.84
12951;BME280;6540;50.858;7.232;2023-05-25T10:04:36;51507.59;;;-142.34;23.62
12951;BME280;6540;50.858;7.232;2023-05-25T10:07:06;51515.66;;;-142.34;23.49
12951;BME280;6540;50.858;7.232;2023-05-25T10:09:37;51628.63;;;-142.34;25.00
12951;BME280;6540;50.858;7.232;2023-05-25T10:12:06;51646.75;;;-142.34;25.94
12951;BME280;6540;50.858;7.232;2023-05-25T10:14:34;51604.41;;;-142.34;24.90
12951;BME280;6540;50.858;7.232;2023-05-25T10:17:03;51481.34;;;-142.34;23.90
12951;BME280;6540;50.858;7.232;2023-05-25T10:19:35;51572.13;;;-142.34;24.78
12951;BME280;6540;50.858;7.232;2023-05-25T10:22:18;51547.94;;;-142.34;23.07
12951;BME280;6540;50.858;7.232;2023-05-25T10:27:33;51551.97;;;-142.34;23.87
12951;BME280;6540;50.858;7.232;2023-05-25T10:30:00;51560.03;;;-142.34;23.76
12951;BME280;6540;50.858;7.232;2023-05-25T10:32:27;51580.19;;;-142.34;24.31
12951;BME280;6540;50.858;7.232;2023-05-25T10:34:52;51596.34;;;-142.34;24.48
12951;BME280;6540;50.858;7.232;2023-05-25T10:37:19;51539.84;;;-142.34;23.85
12951;BME280;6540;50.858;7.232;2023-05-25T10:39:46;51497.50;;;-142.34;23.05
12951;BME280;6540;50.858;7.232;2023-05-25T10:42:17;51481.34;;;-142.34;23.06
12951;BME280;6540;50.858;7.232;2023-05-25T10:44:42;51445.06;;;-142.34;22.70
12951;BME280;6540;50.858;7.232;2023-05-25T10:47:12;51511.63;;;-142.34;23.51
12951;BME280;6540;50.858;7.232;2023-05-25T10:49:55;51539.84;;;-142.34;23.51
12951;BME280;6540;50.858;7.232;2023-05-25T10:52:27;51590.28;;;-142.34;23.99
12951;BME280;6540;50.858;7.232;2023-05-25T10:55:00;51531.78;;;-142.34;22.79
12951;BME280;6540;50.858;7.232;2023-05-25T10:57:27;51584.22;;;-142.34;23.70
12951;BME280;6540;50.858;7.232;2023-05-25T10:59:54;51519.69;;;-142.34;23.33
12951;BME280;6540;50.858;7.232;2023-05-25T11:02:28;51568.09;;;-142.34;24.19
12951;BME280;6540;50.858;7.232;2023-05-25T11:05:32;51632.66;;;-142.34;25.24
12951;BME280;6540;50.858;7.232;2023-05-25T11:08:02;51564.06;;;-142.34;24.16
12951;BME280;6540;50.858;7.232;2023-05-25T11:16:18;51596.34;;;-142.34;24.57
12951;BME280;6540;50.858;7.232;2023-05-25T11:18:51;51549.94;;;-142.34;23.75
12951;BME280;6540;50.858;7.232;2023-05-25T11:26:29;51600.38;;;-142.34;23.98
12951;BME280;6540;50.858;7.232;2023-05-25T11:28:56;51578.19;;;-142.34;24.23
12951;BME280;6540;50.858;7.232;2023-05-25T11:33:54;51580.19;;;-142.34;23.88
12951;BME280;6540;50.858;7.232;2023-05-25T11:36:22;51564.06;;;-142.34;24.70
12951;BME280;6540;50.858;7.232;2023-05-25T11:38:47;51610.47;;;-142.34;25.39
12951;BME280;6540;50.858;7.232;2023-05-25T11:41:17;51640.72;;;-142.34;25.21
12951;BME280;6540;50.858;7.232;2023-05-25T11:43:55;51558.00;;;-142.34;23.90
12951;BME280;6540;50.858;7.232;2023-05-25T11:46:27;51507.59;;;-142.34;23.65
12951;BME280;6540;50.858;7.232;2023-05-25T11:48:53;51501.53;;;-142.34;23.14
12951;BME280;6540;50.858;7.232;2023-05-25T11:51:20;51517.66;;;-142.34;23.75
12951;BME280;6540;50.858;7.232;2023-05-25T11:53:46;51658.88;;;-142.34;25.83
12951;BME280;6540;50.858;7.232;2023-05-25T11:56:15;51606.44;;;-142.34;25.07
12951;BME280;6540;50.858;7.232;2023-05-25T11:58:41;51600.38;;;-142.34;24.65
12951;BME280;6540;50.858;7.232;2023-05-25T12:01:20;51547.94;;;-142.34;23.73
12951;BME280;6540;50.858;7.232;2023-05-25T12:03:47;51545.91;;;-142.34;24.37
12951;BME280;6540;50.858;7.232;2023-05-25T12:06:27;51564.06;;;-142.34;24.88
12951;BME280;6540;50.858;7.232;2023-05-25T12:08:54;51543.88;;;-142.34;23.87
12951;BME280;6540;50.858;7.232;2023-05-25T12:11:33;51556.00;;;-142.34;24.23
12951;BME280;6540;50.858;7.232;2023-05-25T12:14:00;51594.31;;;-142.34;25.00
12951;BME280;6540;50.858;7.232;2023-05-25T12:16:28;51562.03;;;-142.34;24.58
12951;BME280;6540;50.858;7.232;2023-05-25T12:18:55;51572.13;;;-142.34;24.64
12951;BME280;6540;50.858;7.232;2023-05-25T12:21:21;51539.84;;;-142.34;24.32
12951;BME280;6540;50.858;7.232;2023-05-25T12:23:47;51604.41;;;-142.34;25.70
12951;BME280;6540;50.858;7.232;2023-05-25T12:26:15;51616.50;;;-142.34;25.41
12951;BME280;6540;50.858;7.232;2023-05-25T12:29:05;51551.97;;;-142.34;24.48
12951;BME280;6540;50.858;7.232;2023-05-25T12:31:35;51608.44;;;-142.34;24.75
12951;BME280;6540;50.858;7.232;2023-05-25T12:36:44;51600.38;;;-142.34;25.32
12951;BME280;6540;50.858;7.232;2023-05-25T12:39:11;51562.03;;;-142.34;25.12
12951;BME280;6540;50.858;7.232;2023-05-25T12:44:21;51636.69;;;-142.34;25.57
12951;BME280;6540;50.858;7.232;2023-05-25T12:46:52;51588.28;;;-142.34;25.02
12951;BME280;6540;50.858;7.232;2023-05-25T12:49:23;51572.13;;;-142.34;24.98
12951;BME280;6540;50.858;7.232;2023-05-25T12:51:49;51590.28;;;-142.34;24.53
12951;BME280;6540;50.858;7.232;2023-05-25T12:54:14;51624.56;;;-142.34;25.63
12951;BME280;6540;50.858;7.232;2023-05-25T12:56:55;51616.50;;;-142.34;25.20
12951;BME280;6540;50.858;7.232;2023-05-25T12:59:21;51513.63;;;-142.34;23.63
12951;BME280;6540;50.858;7.232;2023-05-25T13:01:46;51539.84;;;-142.34;23.87
12951;BME280;6540;50.858;7.232;2023-05-25T13:04:12;51543.88;;;-142.34;24.26
12951;BME280;6540;50.858;7.232;2023-05-25T13:06:37;51582.22;;;-142.34;24.80
12951;BME280;6540;50.858;7.232;2023-05-25T13:09:03;51570.13;;;-142.34;24.79
12951;BME280;6540;50.858;7.232;2023-05-25T13:11:28;51547.94;;;-142.34;24.10
12951;BME280;6540;50.858;7.232;2023-05-25T13:13:54;51584.22;;;-142.34;25.40
12951;BME280;6540;50.858;7.232;2023-05-25T13:16:19;51580.19;;;-142.34;24.73
12951;BME280;6540;50.858;7.232;2023-05-25T13:18:44;51628.63;;;-142.34;25.81
12951;BME280;6540;50.858;7.232;2023-05-25T13:21:10;51636.69;;;-142.34;26.25
12951;BME280;6540;50.858;7.232;2023-05-25T13:23:35;51578.19;;;-142.34;24.62
12951;BME280;6540;50.858;7.232;2023-05-25T13:26:01;51547.94;;;-142.34;24.88
12951;BME280;6540;50.858;7.232;2023-05-25T13:28:26;51547.94;;;-142.34;23.63
12951;BME280;6540;50.858;7.232;2023-05-25T13:30:52;51596.34;;;-142.34;24.97
12951;BME280;6540;50.858;7.232;2023-05-25T13:33:17;51620.53;;;-142.34;26.74
12951;BME280;6540;50.858;7.232;2023-05-25T13:35:42;51656.84;;;-142.34;26.57
12951;BME280;6540;50.858;7.232;2023-05-25T13:38:22;51640.72;;;-142.34;26.12
12951;BME280;6540;50.858;7.232;2023-05-25T13:40:47;51634.66;;;-142.34;25.13
12951;BME280;6540;50.858;7.232;2023-05-25T13:43:13;51600.38;;;-142.34;24.94
12951;BME280;6540;50.858;7.232;2023-05-25T13:45:38;51628.63;;;-142.34;25.39
12951;BME280;6540;50.858;7.232;2023-05-25T13:48:04;51644.75;;;-142.34;25.52
12951;BME280;6540;50.858;7.232;2023-05-25T13:50:29;51668.97;;;-142.34;25.27
12951;BME280;6540;50.858;7.232;2023-05-25T13:52:57;51598.34;;;-142.34;24.68
12951;BME280;6540;50.858;7.232;2023-05-25T13:55:23;51622.56;;;-142.34;25.22